Time;durP1;ratioP1;P1;durP2;ratioP2;P2;SDS_P1;SDS_P2;PMS_P1;PMS_P2;Temp;Humidity;BMP_temperature;BMP_pressure;BME280_temperature;BME280_humidity;BME280_pressure;Samples;Min_cycle;Max_cycle;Signal;HPM_P1;HPM_P2
2022/12/30 00:01:11;;;;;;;16.60;11.53;;;22.20;99.90;;;;;;5079974;28;20255;-72
2022/12/30 00:03:39;;;;;;;13.50;11.00;;;22.10;99.90;;;;;;5095276;28;20175;-75
2022/12/30 00:06:14;;;;;;;13.73;10.57;;;22.10;99.90;;;;;;5079461;28;20217;-75
2022/12/30 00:08:47;;;;;;;17.40;11.47;;;22.10;99.90;;;;;;5094268;28;20235;-73
2022/12/30 00:11:21;;;;;;;12.90;10.93;;;22.10;99.90;;;;;;5094988;28;20990;-75
2022/12/30 00:33:57;;;;;;;18.43;9.63;;;22.60;99.90;;;;;;5087791;28;20713;-79
2022/12/30 00:36:27;;;;;;;12.40;8.63;;;22.80;99.90;;;;;;5091099;28;20194;-73
2022/12/30 00:38:55;;;;;;;11.13;8.40;;;23.00;99.90;;;;;;5094735;28;20175;-78
2022/12/30 00:44:09;;;;;;;9.57;6.57;;;23.50;99.90;;;;;;5075797;28;20659;-69
2022/12/30 00:46:37;;;;;;;10.90;6.30;;;24.00;99.90;;;;;;5074605;28;20242;-72
2022/12/30 00:57:22;;;;;;;7.93;5.60;;;25.20;99.90;;;;;;5094593;28;20229;-72
2022/12/30 00:59:50;;;;;;;6.77;5.23;;;25.40;99.90;;;;;;5093916;28;20656;-79
2022/12/30 01:02:18;;;;;;;8.53;5.30;;;25.50;99.90;;;;;;5079653;28;20223;-78
2022/12/30 01:04:46;;;;;;;6.40;4.53;;;25.70;99.90;;;;;;5080956;28;20232;-74
2022/12/30 01:07:13;;;;;;;10.10;4.57;;;25.80;99.90;;;;;;5093627;28;20179;-73
2022/12/30 01:09:41;;;;;;;8.37;5.03;;;25.70;99.90;;;;;;5094004;28;20219;-74
2022/12/30 01:12:09;;;;;;;11.77;5.03;;;25.50;99.90;;;;;;5092593;28;20223;-77
2022/12/30 01:14:41;;;;;;;7.67;4.27;;;25.40;99.90;;;;;;5090273;28;20184;-78
2022/12/30 01:17:11;;;;;;;7.73;3.90;;;25.00;99.90;;;;;;5073635;28;20221;-73
2022/12/30 01:19:39;;;;;;;8.93;4.00;;;25.00;99.90;;;;;;5073847;28;20176;-77
2022/12/30 01:22:08;;;;;;;6.57;3.47;;;24.90;99.90;;;;;;5073271;28;20163;-73
2022/12/30 01:24:36;;;;;;;14.33;4.37;;;25.00;99.90;;;;;;5076091;28;20192;-73
2022/12/30 01:27:04;;;;;;;9.70;3.67;;;25.10;99.90;;;;;;5093366;28;20255;-77
2022/12/30 01:29:36;;;;;;;6.77;3.23;;;25.10;99.90;;;;;;5083912;28;20187;-73
2022/12/30 01:32:17;;;;;;;10.47;3.50;;;25.20;99.90;;;;;;5073237;28;20218;-73
2022/12/30 01:34:45;;;;;;;9.73;3.27;;;25.40;99.90;;;;;;5076324;28;20249;-74
2022/12/30 01:37:14;;;;;;;11.17;3.13;;;25.30;99.90;;;;;;5093043;28;20182;-79
2022/12/30 01:39:42;;;;;;;8.47;3.43;;;25.20;99.90;;;;;;5093532;28;20218;-77
2022/12/30 01:42:30;;;;;;;9.33;2.90;;;25.30;99.90;;;;;;5093033;28;20219;-74
2022/12/30 01:45:00;;;;;;;6.83;2.53;;;25.30;99.90;;;;;;5085539;28;20259;-77
2022/12/30 01:48:01;;;;;;;9.07;3.00;;;25.20;99.90;;;;;;5073112;28;20515;-80
2022/12/30 01:50:29;;;;;;;9.37;2.93;;;25.30;99.90;;;;;;5071942;28;20219;-76
2022/12/30 01:53:16;;;;;;;10.90;3.20;;;25.20;99.90;;;;;;5087823;28;20218;-76
2022/12/30 01:55:58;;;;;;;12.60;3.10;;;25.10;99.90;;;;;;5078830;28;20234;-73
2022/12/30 01:58:37;;;;;;;9.43;3.20;;;25.10;99.90;;;;;;5071767;28;20179;-75
2022/12/30 02:01:05;;;;;;;10.33;2.40;;;25.00;99.90;;;;;;5073919;28;20253;-76
2022/12/30 02:03:40;;;;;;;15.17;3.37;;;25.00;99.90;;;;;;5073068;28;20270;-76
2022/12/30 02:06:08;;;;;;;11.17;2.67;;;25.00;99.90;;;;;;5073253;28;20277;-75
2022/12/30 02:08:36;;;;;;;11.77;2.63;;;24.80;99.90;;;;;;5072541;28;20168;-73
2022/12/30 02:11:06;;;;;;;9.00;2.17;;;24.80;99.90;;;;;;5072344;28;20594;-73
2022/12/30 02:13:34;;;;;;;11.03;2.43;;;24.70;99.90;;;;;;5072974;28;20175;-75
2022/12/30 02:16:08;;;;;;;9.63;2.17;;;24.80;99.90;;;;;;5086745;28;20191;-77
2022/12/30 02:18:57;;;;;;;9.33;2.13;;;24.70;99.90;;;;;;5092802;28;20225;-77
2022/12/30 02:21:28;;;;;;;10.73;2.30;;;24.80;99.90;;;;;;5092528;28;20194;-76
2022/12/30 02:24:05;;;;;;;12.07;2.63;;;25.00;99.90;;;;;;5092727;28;20175;-77
2022/12/30 02:26:52;;;;;;;10.57;1.93;;;25.00;99.90;;;;;;5073413;28;20180;-76
2022/12/30 02:29:53;;;;;;;10.47;2.07;;;25.10;99.90;;;;;;5080834;28;20622;-75
2022/12/30 02:32:46;;;;;;;5.63;1.90;;;25.30;99.90;;;;;;5087668;28;20210;-71
2022/12/30 02:35:28;;;;;;;9.00;2.23;;;25.40;99.90;;;;;;5074246;28;20183;-71
2022/12/30 02:38:26;;;;;;;14.03;2.70;;;25.60;99.90;;;;;;5083432;28;20206;-72
2022/12/30 02:46:44;;;;;;;13.03;2.90;;;26.10;99.90;;;;;;5077997;28;20257;-72
2022/12/30 02:49:15;;;;;;;11.17;2.97;;;26.30;99.90;;;;;;5073016;28;20182;-75
2022/12/30 02:54:32;;;;;;;12.37;2.57;;;26.30;99.90;;;;;;5072723;28;20648;-72
2022/12/30 02:57:00;;;;;;;11.07;2.13;;;26.20;99.90;;;;;;5073043;28;20335;-69
2022/12/30 03:05:40;;;;;;;15.87;2.40;;;26.10;99.90;;;;;;5073096;28;20202;-75
2022/12/30 03:08:07;;;;;;;7.90;2.03;;;26.40;99.90;;;;;;5073072;28;20172;-72
2022/12/30 03:13:43;;;;;;;12.57;2.60;;;27.00;99.90;;;;;;5072844;28;20226;-73
2022/12/30 03:16:33;;;;;;;8.97;1.87;;;27.40;99.90;;;;;;5072957;28;20183;-73
2022/12/30 03:19:06;;;;;;;5.50;1.70;;;28.40;99.90;;;;;;5071756;28;20647;-74
2022/12/30 03:21:37;;;;;;;14.07;2.20;;;28.10;99.90;;;;;;5072886;28;20263;-74
2022/12/30 03:27:04;;;;;;;8.10;1.80;;;27.90;99.90;;;;;;5072860;28;20664;-75
2022/12/30 03:29:47;;;;;;;11.47;2.13;;;27.80;99.90;;;;;;5072975;28;20644;-75
2022/12/30 03:32:17;;;;;;;6.47;1.70;;;27.50;99.90;;;;;;5072624;28;20302;-74
2022/12/30 03:34:47;;;;;;;7.63;1.73;;;27.60;99.90;;;;;;5072752;28;20227;-73
2022/12/30 03:37:26;;;;;;;9.17;2.57;;;28.00;99.90;;;;;;5072619;28;20230;-73
2022/12/30 03:39:59;;;;;;;9.43;1.70;;;28.50;99.90;;;;;;5072571;28;20171;-74
2022/12/30 03:42:29;;;;;;;5.97;1.70;;;28.50;99.90;;;;;;5073291;28;20175;-72
2022/12/30 03:44:57;;;;;;;10.03;2.03;;;28.70;99.90;;;;;;5072583;28;20169;-72
2022/12/30 03:47:25;;;;;;;9.33;1.73;;;28.10;99.90;;;;;;5072346;28;20641;-74
2022/12/30 03:49:53;;;;;;;9.00;2.50;;;27.60;99.90;;;;;;5072777;28;20531;-70
2022/12/30 03:52:21;;;;;;;6.47;1.47;;;27.20;99.90;;;;;;5073016;28;20265;-73
2022/12/30 03:54:50;;;;;;;10.30;1.60;;;27.10;99.90;;;;;;5072454;28;20176;-72
2022/12/30 03:57:19;;;;;;;5.80;1.50;;;26.80;99.90;;;;;;5072683;28;20263;-70
2022/12/30 03:59:47;;;;;;;5.80;1.43;;;26.80;99.90;;;;;;5072476;28;20168;-73
2022/12/30 04:02:15;;;;;;;6.80;1.77;;;26.80;99.90;;;;;;5072715;28;20172;-73
2022/12/30 04:04:43;;;;;;;9.20;1.37;;;26.90;99.90;;;;;;5073831;28;20370;-71
2022/12/30 04:07:10;;;;;;;8.03;1.63;;;26.80;99.90;;;;;;5073012;28;20176;-72
2022/12/30 04:09:38;;;;;;;5.67;1.70;;;26.70;99.90;;;;;;5085209;28;20211;-72
2022/12/30 04:12:06;;;;;;;7.43;2.20;;;26.70;99.90;;;;;;5075016;28;20298;-72
2022/12/30 04:14:34;;;;;;;6.27;1.60;;;26.70;99.90;;;;;;5082918;28;20176;-72
2022/12/30 04:17:02;;;;;;;8.23;1.77;;;26.60;99.90;;;;;;5088068;28;20555;-71
2022/12/30 04:19:30;;;;;;;5.27;2.10;;;26.50;99.90;;;;;;5075402;28;20575;-72
2022/12/30 04:21:57;;;;;;;6.43;1.50;;;26.30;99.90;;;;;;5086029;28;20224;-71
2022/12/30 04:24:25;;;;;;;4.73;1.43;;;26.20;99.90;;;;;;5094170;28;20645;-71
2022/12/30 04:26:53;;;;;;;4.23;1.23;;;26.10;99.90;;;;;;5092549;28;20592;-71
2022/12/30 04:29:21;;;;;;;7.23;1.70;;;26.10;99.90;;;;;;5073183;28;20560;-72
2022/12/30 04:31:49;;;;;;;4.77;1.40;;;26.30;99.90;;;;;;5078119;28;20250;-72
2022/12/30 04:34:17;;;;;;;7.87;1.43;;;26.30;99.90;;;;;;5094264;28;20174;-73
2022/12/30 04:36:45;;;;;;;6.80;1.73;;;26.30;99.90;;;;;;5094650;28;20182;-72
2022/12/30 04:39:12;;;;;;;7.80;1.47;;;26.20;99.90;;;;;;5095721;28;20258;-73
2022/12/30 04:41:40;;;;;;;7.63;1.53;;;26.30;99.90;;;;;;5087033;28;20176;-72
2022/12/30 04:44:08;;;;;;;7.70;2.03;;;26.50;99.90;;;;;;5074617;28;20187;-72
2022/12/30 04:46:36;;;;;;;6.33;1.87;;;26.60;99.90;;;;;;5074239;28;20179;-72
2022/12/30 04:49:04;;;;;;;11.20;1.90;;;26.60;99.90;;;;;;5073560;28;20172;-72
2022/12/30 04:51:31;;;;;;;5.33;1.60;;;26.60;99.90;;;;;;5074219;28;20215;-72
2022/12/30 04:53:59;;;;;;;9.83;1.90;;;26.30;99.90;;;;;;5079165;28;20266;-72
2022/12/30 04:56:27;;;;;;;9.27;1.70;;;26.30;99.90;;;;;;5093641;28;20191;-72
2022/12/30 04:58:55;;;;;;;8.83;1.47;;;26.30;99.90;;;;;;5094191;28;20180;-73
2022/12/30 05:01:23;;;;;;;4.27;1.53;;;26.30;99.90;;;;;;5094058;28;20183;-73
2022/12/30 05:03:51;;;;;;;6.17;1.90;;;26.50;99.90;;;;;;5093517;28;20199;-72
2022/12/30 05:06:18;;;;;;;7.30;1.97;;;26.50;99.90;;;;;;5094022;28;20232;-73
2022/12/30 05:08:46;;;;;;;7.20;1.27;;;26.70;99.90;;;;;;5083108;28;20169;-72
2022/12/30 05:11:14;;;;;;;5.90;1.40;;;26.70;99.90;;;;;;5072987;28;20613;-72
2022/12/30 05:13:42;;;;;;;5.77;1.60;;;26.90;99.90;;;;;;5073594;28;20633;-71
2022/12/30 05:16:10;;;;;;;5.67;1.20;;;26.90;99.90;;;;;;5073489;28;20180;-72
2022/12/30 05:18:37;;;;;;;6.87;1.47;;;26.70;99.90;;;;;;5073005;28;20180;-72
2022/12/30 05:21:05;;;;;;;8.63;1.60;;;26.50;99.90;;;;;;5073538;28;20188;-72
2022/12/30 05:26:19;;;;;;;5.53;2.07;;;26.90;99.90;;;;;;5085647;28;20226;-73
2022/12/30 05:28:49;;;;;;;7.47;1.57;;;27.00;99.90;;;;;;5086256;28;20183;-73
2022/12/30 05:31:18;;;;;;;8.00;2.00;;;26.70;99.90;;;;;;5083759;28;20339;-72
2022/12/30 05:33:47;;;;;;;7.70;2.03;;;26.60;99.90;;;;;;5092954;28;20209;-72
2022/12/30 05:36:15;;;;;;;9.63;2.13;;;26.60;99.90;;;;;;5084725;28;20180;-72
2022/12/30 05:38:43;;;;;;;10.27;2.17;;;26.70;99.90;;;;;;5080299;28;20277;-71
2022/12/30 05:41:11;;;;;;;6.83;1.40;;;26.60;99.90;;;;;;5088660;28;20183;-72
2022/12/30 05:43:39;;;;;;;7.37;1.63;;;26.60;99.90;;;;;;5087249;28;20236;-72
2022/12/30 05:46:07;;;;;;;7.93;2.07;;;26.60;99.90;;;;;;5073869;28;20666;-73
2022/12/30 05:48:35;;;;;;;6.63;1.50;;;26.50;99.90;;;;;;5083428;28;20198;-72
2022/12/30 05:51:02;;;;;;;4.50;1.40;;;26.30;99.90;;;;;;5076480;28;20223;-71
2022/12/30 05:53:31;;;;;;;9.73;1.70;;;26.10;99.90;;;;;;5073067;28;20184;-72
2022/12/30 05:55:59;;;;;;;10.93;2.03;;;25.90;99.90;;;;;;5072042;28;20184;-72
2022/12/30 05:58:27;;;;;;;8.37;1.87;;;25.70;99.90;;;;;;5072992;28;20613;-72
2022/12/30 06:00:57;;;;;;;8.73;2.23;;;25.50;99.90;;;;;;5071344;28;20187;-72
2022/12/30 06:03:25;;;;;;;6.10;1.53;;;25.40;99.90;;;;;;5072416;28;20666;-72
2022/12/30 06:05:57;;;;;;;4.97;1.33;;;25.50;99.90;;;;;;5076274;28;20652;-71
2022/12/30 06:08:25;;;;;;;11.63;1.97;;;25.50;99.90;;;;;;5092731;28;20316;-72
2022/12/30 06:10:53;;;;;;;9.20;1.70;;;25.50;99.90;;;;;;5092014;28;20234;-71
2022/12/30 06:13:21;;;;;;;7.13;1.47;;;25.50;99.90;;;;;;5074038;28;20195;-71
2022/12/30 06:15:49;;;;;;;5.60;1.70;;;25.40;99.90;;;;;;5072232;28;20180;-71
2022/12/30 06:18:16;;;;;;;8.80;1.67;;;25.30;99.90;;;;;;5089673;28;20212;-71
2022/12/30 06:20:46;;;;;;;11.13;1.97;;;25.20;99.90;;;;;;5091765;28;20179;-71
2022/12/30 06:23:14;;;;;;;11.63;2.37;;;25.20;99.90;;;;;;5092711;28;20178;-72
2022/12/30 06:25:42;;;;;;;6.03;1.50;;;25.20;99.90;;;;;;5092073;28;20595;-71
2022/12/30 06:28:10;;;;;;;5.97;2.03;;;25.20;99.90;;;;;;5086669;28;20176;-71
2022/12/30 06:30:38;;;;;;;8.63;2.10;;;25.20;99.90;;;;;;5072782;28;20203;-71
2022/12/30 06:33:06;;;;;;;9.47;2.17;;;25.20;99.90;;;;;;5073035;28;20317;-72
2022/12/30 06:35:33;;;;;;;5.73;1.50;;;25.10;99.90;;;;;;5092001;28;20187;-71
2022/12/30 06:38:01;;;;;;;7.27;1.93;;;25.10;99.90;;;;;;5093202;28;20182;-73
2022/12/30 06:40:29;;;;;;;8.73;1.93;;;25.20;99.90;;;;;;5092438;28;20174;-70
2022/12/30 06:42:57;;;;;;;10.67;2.20;;;25.10;99.90;;;;;;5078940;28;20210;-72
2022/12/30 06:45:24;;;;;;;6.50;1.60;;;25.10;99.90;;;;;;5072527;28;20200;-72
2022/12/30 06:47:52;;;;;;;7.33;2.07;;;25.00;99.90;;;;;;5072417;28;20191;-72
2022/12/30 06:50:20;;;;;;;12.50;2.37;;;24.90;99.90;;;;;;5073435;28;20462;-69
2022/12/30 06:52:48;;;;;;;9.10;2.30;;;24.80;99.90;;;;;;5076005;28;20253;-72
2022/12/30 06:55:16;;;;;;;11.07;2.47;;;24.70;99.90;;;;;;5071433;28;20176;-71
2022/12/30 06:57:44;;;;;;;11.00;2.20;;;24.70;99.90;;;;;;5071910;28;20668;-72
2022/12/30 07:00:12;;;;;;;7.90;2.03;;;24.70;99.90;;;;;;5071761;28;20241;-71
2022/12/30 07:02:40;;;;;;;12.80;2.00;;;24.70;99.90;;;;;;5084889;28;20225;-70
2022/12/30 07:05:08;;;;;;;9.00;2.17;;;24.60;99.90;;;;;;5091986;28;20179;-69
2022/12/30 07:07:36;;;;;;;13.50;2.20;;;24.60;99.90;;;;;;5078504;28;20592;-72
2022/12/30 07:10:05;;;;;;;13.63;2.83;;;24.60;99.90;;;;;;5071200;28;20300;-70
2022/12/30 07:12:35;;;;;;;13.50;2.03;;;24.50;99.90;;;;;;5071613;28;20214;-71
2022/12/30 07:15:04;;;;;;;6.57;1.90;;;24.50;99.90;;;;;;5071674;28;20237;-72
2022/12/30 07:17:32;;;;;;;12.27;2.43;;;24.60;99.90;;;;;;5074492;28;20258;-71
2022/12/30 07:20:00;;;;;;;18.70;2.33;;;24.50;99.90;;;;;;5070355;28;20184;-71
2022/12/30 07:22:27;;;;;;;11.57;2.20;;;24.40;99.90;;;;;;5070537;28;20660;-72
2022/12/30 07:24:55;;;;;;;10.57;2.13;;;24.20;99.90;;;;;;5071830;28;20179;-72
2022/12/30 07:27:24;;;;;;;11.03;2.40;;;24.20;99.90;;;;;;5090452;28;20175;-72
2022/12/30 07:29:52;;;;;;;9.57;2.40;;;24.30;99.90;;;;;;5090967;28;20187;-72
2022/12/30 07:32:20;;;;;;;11.10;2.23;;;24.20;99.90;;;;;;5091277;28;20214;-71
2022/12/30 07:34:48;;;;;;;12.27;2.17;;;24.20;99.90;;;;;;5091770;28;20174;-72
2022/12/30 07:37:20;;;;;;;9.73;2.30;;;24.20;99.90;;;;;;5086883;28;20653;-74
2022/12/30 07:39:48;;;;;;;11.27;2.23;;;24.20;99.90;;;;;;5071073;28;20630;-73
2022/12/30 07:42:15;;;;;;;10.83;2.57;;;24.20;99.90;;;;;;5071498;28;20187;-72
2022/12/30 07:44:43;;;;;;;8.80;1.53;;;24.20;99.90;;;;;;5071485;28;20255;-72
2022/12/30 07:47:11;;;;;;;12.37;2.03;;;24.10;99.90;;;;;;5070795;28;20494;-73
2022/12/30 07:49:40;;;;;;;9.20;1.77;;;24.00;99.90;;;;;;5078808;28;20354;-73
2022/12/30 07:52:08;;;;;;;15.10;2.93;;;24.00;99.90;;;;;;5081423;28;20233;-72
2022/12/30 07:54:36;;;;;;;15.93;2.37;;;23.90;99.90;;;;;;5074912;28;20193;-72
2022/12/30 07:57:04;;;;;;;13.40;2.70;;;23.80;99.90;;;;;;5082928;28;20570;-73
2022/12/30 07:59:31;;;;;;;15.33;2.47;;;23.80;99.90;;;;;;5075044;28;20175;-73
2022/12/30 08:01:59;;;;;;;12.90;2.60;;;23.60;99.90;;;;;;5078455;28;20183;-72
2022/12/30 08:04:27;;;;;;;14.63;2.83;;;23.60;99.90;;;;;;5094839;28;20221;-72
2022/12/30 08:06:55;;;;;;;13.13;2.47;;;23.60;99.90;;;;;;5094843;28;20213;-73
2022/12/30 08:09:22;;;;;;;12.27;2.80;;;23.60;99.90;;;;;;5094571;28;20214;-73
2022/12/30 08:11:50;;;;;;;11.63;2.20;;;23.60;99.90;;;;;;5078825;28;20254;-72
2022/12/30 08:14:18;;;;;;;10.47;2.80;;;23.50;99.90;;;;;;5091752;28;20179;-72
2022/12/30 08:16:46;;;;;;;9.67;2.33;;;23.50;99.90;;;;;;5094719;28;20183;-72
2022/12/30 08:19:14;;;;;;;13.53;2.70;;;23.50;99.90;;;;;;5083907;28;20293;-73
2022/12/30 08:21:41;;;;;;;12.07;2.60;;;23.30;99.90;;;;;;5074787;28;20179;-72
2022/12/30 08:24:10;;;;;;;8.13;2.40;;;23.30;99.90;;;;;;5091971;28;20687;-72
2022/12/30 08:26:38;;;;;;;9.17;2.60;;;23.20;99.90;;;;;;5095040;28;20232;-72
2022/12/30 08:29:06;;;;;;;8.17;2.30;;;23.30;99.90;;;;;;5094929;28;20179;-72
2022/12/30 08:31:33;;;;;;;13.23;2.70;;;23.30;99.90;;;;;;5082647;28;20222;-72
2022/12/30 08:34:01;;;;;;;16.33;2.83;;;23.30;99.90;;;;;;5090536;28;20195;-73
2022/12/30 08:36:30;;;;;;;10.90;2.77;;;23.30;99.90;;;;;;5094707;28;20174;-71
2022/12/30 08:39:01;;;;;;;13.03;2.67;;;23.40;99.90;;;;;;5102113;28;20262;-72
2022/12/30 08:41:38;;;;;;;16.97;2.83;;;23.40;99.90;;;;;;5097070;28;20190;-71
2022/12/30 08:44:06;;;;;;;14.60;2.70;;;23.50;99.90;;;;;;5077600;28;20182;-72
2022/12/30 08:46:36;;;;;;;12.27;2.87;;;23.50;99.90;;;;;;5080562;28;20221;-72
2022/12/30 08:49:04;;;;;;;15.27;3.53;;;23.50;99.90;;;;;;5099576;28;20253;-72
2022/12/30 08:51:32;;;;;;;11.87;2.50;;;23.40;99.90;;;;;;5093680;28;20259;-72
2022/12/30 08:54:00;;;;;;;14.23;3.10;;;23.30;99.90;;;;;;5080417;28;20183;-73
2022/12/30 08:56:33;;;;;;;16.70;3.20;;;23.20;99.90;;;;;;5074181;28;20728;-72
2022/12/30 08:59:01;;;;;;;11.40;3.00;;;23.30;99.90;;;;;;5073884;28;20193;-72
2022/12/30 09:01:33;;;;;;;13.97;3.10;;;23.20;99.90;;;;;;5073570;28;20187;-72
2022/12/30 09:04:03;;;;;;;18.97;3.30;;;23.20;99.90;;;;;;5073962;28;20194;-71
2022/12/30 09:06:31;;;;;;;11.00;2.93;;;23.10;99.90;;;;;;5073359;28;20280;-72
2022/12/30 09:09:00;;;;;;;15.23;2.90;;;23.10;99.90;;;;;;5073225;28;20175;-72
2022/12/30 09:11:31;;;;;;;15.10;2.80;;;23.00;99.90;;;;;;5085091;28;20236;-72
2022/12/30 09:14:00;;;;;;;11.63;2.63;;;22.90;99.90;;;;;;5073565;28;20195;-72
2022/12/30 09:16:29;;;;;;;13.27;2.40;;;22.80;99.90;;;;;;5073570;28;20186;-72
2022/12/30 09:18:57;;;;;;;14.57;2.97;;;22.80;99.90;;;;;;5073681;28;20260;-72
2022/12/30 09:21:25;;;;;;;11.97;2.73;;;22.70;99.90;;;;;;5073480;28;20211;-72
2022/12/30 09:23:52;;;;;;;16.73;2.97;;;22.60;99.90;;;;;;5073215;28;20192;-72
2022/12/30 09:26:22;;;;;;;8.17;2.33;;;22.60;99.90;;;;;;5073511;28;20207;-72
2022/12/30 09:28:50;;;;;;;13.67;2.77;;;22.50;99.90;;;;;;5073135;28;20215;-73
2022/12/30 09:31:17;;;;;;;14.20;2.67;;;22.40;99.90;;;;;;5071832;28;20225;-72
2022/12/30 09:33:45;;;;;;;13.47;2.90;;;22.30;99.90;;;;;;5084597;28;20705;-71
2022/12/30 09:36:13;;;;;;;15.73;3.20;;;22.30;99.90;;;;;;5075064;28;20195;-71
2022/12/30 09:38:41;;;;;;;13.47;2.93;;;22.30;99.90;;;;;;5075876;28;20527;-72
2022/12/30 09:41:12;;;;;;;14.27;2.77;;;22.40;99.90;;;;;;5092304;28;20236;-71
2022/12/30 09:43:48;;;;;;;10.37;3.00;;;22.30;99.90;;;;;;5084382;28;20183;-71
2022/12/30 09:46:23;;;;;;;12.60;2.53;;;22.30;99.90;;;;;;5092303;28;20647;-71
2022/12/30 09:49:16;;;;;;;8.67;2.53;;;22.30;99.90;;;;;;5093287;28;20167;-72
2022/12/30 09:51:52;;;;;;;12.80;3.10;;;22.40;99.90;;;;;;5089598;28;20282;-72
2022/12/30 09:54:25;;;;;;;15.60;3.60;;;22.30;99.90;;;;;;5082141;28;20573;-72
2022/12/30 09:57:30;;;;;;;11.83;2.93;;;22.30;99.90;;;;;;5093276;28;20266;-72
2022/12/30 09:59:44;;;;;;;20.77;4.13;;;22.30;99.90;;;;;;5092558;28;20190;-72
2022/12/30 10:02:31;;;;;;;11.40;3.27;;;22.20;99.90;;;;;;5085656;28;20699;-71
2022/12/30 10:05:00;;;;;;;15.20;3.20;;;22.10;99.90;;;;;;5081664;28;20229;-72
2022/12/30 10:08:03;;;;;;;12.13;2.90;;;22.00;99.90;;;;;;5077669;28;20192;-71
2022/12/30 10:10:45;;;;;;;11.33;2.67;;;21.90;99.90;;;;;;5052860;28;20226;-72
2022/12/30 10:13:28;;;;;;;11.13;2.57;;;21.90;99.90;;;;;;5084544;28;20281;-71
2022/12/30 10:16:09;;;;;;;11.63;2.20;;;22.00;99.90;;;;;;5092677;28;20211;-72
2022/12/30 10:18:52;;;;;;;12.77;2.97;;;22.00;99.90;;;;;;5092061;28;20225;-71
2022/12/30 10:21:43;;;;;;;9.83;2.73;;;21.90;99.90;;;;;;5091026;28;20185;-72
2022/12/30 10:24:23;;;;;;;17.37;3.07;;;21.90;99.90;;;;;;5074880;28;20554;-72
2022/12/30 10:26:51;;;;;;;13.27;2.80;;;21.90;99.90;;;;;;5071332;28;20681;-72
2022/12/30 10:29:23;;;;;;;14.50;2.93;;;21.80;99.90;;;;;;5071852;28;20528;-72
2022/12/30 10:31:52;;;;;;;14.23;3.37;;;21.80;99.90;;;;;;5078094;28;20219;-72
2022/12/30 10:34:24;;;;;;;13.60;3.07;;;21.90;99.90;;;;;;5091159;28;20170;-72
2022/12/30 10:37:01;;;;;;;9.80;2.30;;;21.90;99.90;;;;;;5083635;28;20196;-72
2022/12/30 10:39:38;;;;;;;8.47;2.50;;;21.90;99.90;;;;;;5089827;28;20179;-72
2022/12/30 10:42:32;;;;;;;16.20;3.50;;;21.80;99.90;;;;;;5081053;28;20600;-72
2022/12/30 10:45:19;;;;;;;15.00;3.07;;;21.70;99.90;;;;;;5079006;28;20225;-72
2022/12/30 10:48:01;;;;;;;12.77;2.80;;;21.60;99.90;;;;;;5080997;28;20176;-72
2022/12/30 10:50:43;;;;;;;9.80;2.30;;;21.60;99.90;;;;;;5080489;28;20179;-72
2022/12/30 10:53:18;;;;;;;14.07;2.93;;;21.50;99.90;;;;;;5090501;28;20186;-72
2022/12/30 10:55:54;;;;;;;11.87;3.10;;;21.50;99.90;;;;;;5091463;28;20180;-73
2022/12/30 10:58:47;;;;;;;12.60;2.47;;;21.50;99.90;;;;;;5086723;28;20187;-72
2022/12/30 11:01:29;;;;;;;14.97;2.73;;;21.40;99.90;;;;;;5080619;28;20568;-72
2022/12/30 11:03:58;;;;;;;10.23;2.83;;;21.40;99.90;;;;;;5081694;28;20300;-73
2022/12/30 11:06:30;;;;;;;15.77;2.33;;;21.20;99.90;;;;;;5084228;28;20760;-72
2022/12/30 11:09:22;;;;;;;12.13;2.63;;;21.10;99.90;;;;;;5090477;28;20217;-73
2022/12/30 11:14:44;;;;;;;12.57;3.23;;;21.10;99.90;;;;;;5082217;28;20783;-73
2022/12/30 11:17:32;;;;;;;10.83;2.93;;;21.00;99.90;;;;;;5071687;28;20188;-72
2022/12/30 11:20:15;;;;;;;8.77;2.70;;;20.80;99.90;;;;;;5071372;28;20182;-72
2022/12/30 11:22:51;;;;;;;10.33;2.70;;;20.60;99.90;;;;;;5070471;28;20623;-72
2022/12/30 11:25:43;;;;;;;7.50;2.07;;;20.50;99.90;;;;;;5087992;28;20177;-72
2022/12/30 11:28:22;;;;;;;8.33;2.23;;;20.40;99.90;;;;;;5089390;28;20510;-71
2022/12/30 11:30:55;;;;;;;11.10;2.47;;;20.30;99.90;;;;;;5093818;28;20220;-72
2022/12/30 11:33:31;;;;;;;10.57;2.90;;;20.20;99.90;;;;;;5095199;28;20240;-73
2022/12/30 11:36:27;;;;;;;9.07;2.20;;;20.20;99.90;;;;;;5094320;28;20170;-72
2022/12/30 11:38:57;;;;;;;12.93;3.27;;;20.10;99.90;;;;;;5089617;28;20541;-72
2022/12/30 11:41:30;;;;;;;16.27;3.23;;;20.10;99.90;;;;;;5075499;28;20191;-72
2022/12/30 11:44:00;;;;;;;10.10;2.47;;;20.00;99.90;;;;;;5082248;28;20234;-72
2022/12/30 11:46:46;;;;;;;10.63;3.03;;;20.00;99.90;;;;;;5078204;28;20229;-72
2022/12/30 11:49:32;;;;;;;9.77;2.40;;;19.90;99.90;;;;;;5075627;28;20167;-72
2022/12/30 11:52:12;;;;;;;13.40;4.50;;;19.90;99.90;;;;;;5090698;28;20210;-73
2022/12/30 11:55:07;;;;;;;15.03;4.67;;;19.80;99.90;;;;;;5081190;28;20196;-72
2022/12/30 11:57:41;;;;;;;11.77;2.87;;;19.70;99.90;;;;;;5072624;28;20187;-71
2022/12/30 12:00:12;;;;;;;11.50;3.50;;;19.70;99.90;;;;;;5073817;28;20591;-72
2022/12/30 12:03:00;;;;;;;8.27;2.77;;;19.60;99.90;;;;;;5075288;28;20676;-72
2022/12/30 12:05:42;;;;;;;6.80;2.50;;;19.60;99.90;;;;;;5081004;28;20182;-71
2022/12/30 12:08:22;;;;;;;10.87;2.87;;;19.50;99.90;;;;;;5093964;28;20206;-72
2022/12/30 12:10:57;;;;;;;18.73;3.43;;;19.50;99.90;;;;;;5075824;28;20245;-72
2022/12/30 12:13:46;;;;;;;8.47;2.80;;;19.50;99.90;;;;;;5076174;28;20216;-72
2022/12/30 12:16:20;;;;;;;11.23;3.23;;;19.50;99.90;;;;;;5076532;28;20257;-71
2022/12/30 12:19:06;;;;;;;16.43;3.97;;;19.50;99.90;;;;;;5076948;28;20243;-72
2022/12/30 12:21:38;;;;;;;15.67;3.57;;;19.50;99.90;;;;;;5076115;28;20203;-72
2022/12/30 12:24:29;;;;;;;14.13;4.40;;;19.50;99.90;;;;;;5076334;28;20180;-72
2022/12/30 12:27:16;;;;;;;12.83;3.80;;;19.60;99.90;;;;;;5076014;28;20172;-71
2022/12/30 12:29:44;;;;;;;16.87;4.23;;;19.80;99.90;;;;;;5076236;28;20203;-71
2022/12/30 12:32:42;;;;;;;9.63;3.27;;;19.90;99.90;;;;;;5088524;28;20690;-71
2022/12/30 12:35:18;;;;;;;13.27;3.80;;;20.00;99.90;;;;;;5079873;28;20172;-72
2022/12/30 12:38:17;;;;;;;10.67;3.37;;;20.10;99.90;;;;;;5076053;28;20213;-71
2022/12/30 12:41:06;;;;;;;16.47;3.63;;;20.20;99.90;;;;;;5074801;28;20179;-72
2022/12/30 12:43:57;;;;;;;18.57;4.97;;;20.30;99.90;;;;;;5074272;28;20172;-71
2022/12/30 12:46:27;;;;;;;16.03;3.43;;;20.40;99.90;;;;;;5058325;28;20324;-72
2022/12/30 12:49:07;;;;;;;17.67;3.53;;;20.50;99.90;;;;;;5095868;28;20212;-71
2022/12/30 12:52:00;;;;;;;11.90;3.20;;;20.50;99.90;;;;;;5094483;28;20258;-70
2022/12/30 12:55:18;;;;;;;6.03;2.90;;;20.50;99.90;;;;;;5085044;28;20553;-71
2022/12/30 12:57:51;;;;;;;9.97;3.20;;;20.50;99.90;;;;;;5033536;28;20220;-73
2022/12/30 13:00:21;;;;;;;14.17;3.00;;;20.50;99.90;;;;;;5083794;28;20193;-71
2022/12/30 13:03:03;;;;;;;9.63;2.53;;;20.60;99.90;;;;;;5095667;28;20185;-71
2022/12/30 13:06:01;;;;;;;10.87;2.87;;;20.50;99.90;;;;;;5079933;28;20187;-72
2022/12/30 13:08:38;;;;;;;14.10;3.23;;;20.50;99.90;;;;;;5075111;28;20203;-71
2022/12/30 13:11:16;;;;;;;9.30;2.80;;;20.50;99.90;;;;;;5074908;28;20589;-72
2022/12/30 13:14:02;;;;;;;8.43;2.53;;;20.50;99.90;;;;;;5075247;28;20172;-72
2022/12/30 13:16:53;;;;;;;8.97;2.70;;;20.40;99.90;;;;;;5094173;28;20564;-72
2022/12/30 13:19:27;;;;;;;9.13;2.23;;;20.40;99.90;;;;;;5095209;28;20184;-72
2022/12/30 13:21:59;;;;;;;5.33;2.47;;;20.40;99.90;;;;;;5095228;28;20582;-72
2022/12/30 13:24:36;;;;;;;7.70;3.17;;;20.30;99.90;;;;;;5088316;28;20190;-72
2022/12/30 13:27:07;;;;;;;7.80;2.50;;;20.20;99.90;;;;;;5080072;28;20188;-71
2022/12/30 13:29:37;;;;;;;10.53;2.90;;;20.10;99.90;;;;;;5095076;28;20652;-72
2022/12/30 13:32:11;;;;;;;7.60;2.47;;;20.00;99.90;;;;;;5095092;28;20211;-71
2022/12/30 13:35:03;;;;;;;7.93;2.77;;;19.90;99.90;;;;;;5093341;28;20697;-72
2022/12/30 13:37:35;;;;;;;8.13;2.70;;;19.70;99.90;;;;;;5093735;28;20211;-72
2022/12/30 13:40:16;;;;;;;8.67;3.13;;;19.70;99.90;;;;;;5095091;28;20174;-72
2022/12/30 13:43:07;;;;;;;7.47;2.47;;;19.60;99.90;;;;;;5094845;28;20243;-72
2022/12/30 13:45:47;;;;;;;9.93;2.97;;;19.60;99.90;;;;;;5075188;28;20186;-72
2022/12/30 13:48:17;;;;;;;6.43;2.33;;;19.50;99.90;;;;;;5073021;28;20530;-72
2022/12/30 13:50:46;;;;;;;9.40;2.43;;;19.50;99.90;;;;;;5074236;28;20215;-72
2022/12/30 13:53:48;;;;;;;13.00;2.83;;;19.60;99.90;;;;;;5074174;28;20222;-73
2022/12/30 13:56:39;;;;;;;9.90;2.67;;;19.60;99.90;;;;;;5031707;28;20240;-72
2022/12/30 13:59:22;;;;;;;9.90;2.93;;;19.70;99.90;;;;;;5075163;28;20174;-72
2022/12/30 14:01:49;;;;;;;10.47;2.80;;;19.70;99.90;;;;;;5074558;28;20193;-72
2022/12/30 14:04:29;;;;;;;12.27;3.13;;;19.70;99.90;;;;;;5074494;28;20264;-72
2022/12/30 14:06:57;;;;;;;12.53;3.07;;;19.60;99.90;;;;;;5072871;28;20184;-72
2022/12/30 14:09:30;;;;;;;11.30;2.80;;;19.40;99.90;;;;;;5073972;28;20180;-71